sensor_id;sensor_type;location;lat;lon;timestamp;temperature;humidity
34153;DHT22;20426;48.372;10.888;2022-08-16T00:00:25;19.70;93.50
34153;DHT22;20426;48.372;10.888;2022-08-16T00:00:57;19.70;93.50
34153;DHT22;20426;48.372;10.888;2022-08-16T00:01:28;19.60;93.50
34153;DHT22;20426;48.372;10.888;2022-08-16T00:01:59;19.60;93.60
34153;DHT22;20426;48.372;10.888;2022-08-16T00:02:30;19.70;93.70
34153;DHT22;20426;48.372;10.888;2022-08-16T00:03:02;19.70;93.60
34153;DHT22;20426;48.372;10.888;2022-08-16T00:03:33;19.60;93.60
34153;DHT22;20426;48.372;10.888;2022-08-16T00:04:04;19.60;93.60
34153;DHT22;20426;48.372;10.888;2022-08-16T00:04:35;19.60;93.60
34153;DHT22;20426;48.372;10.888;2022-08-16T00:05:08;19.70;93.70
34153;DHT22;20426;48.372;10.888;2022-08-16T00:05:40;19.70;93.70
34153;DHT22;20426;48.372;10.888;2022-08-16T00:06:11;19.60;93.60
34153;DHT22;20426;48.372;10.888;2022-08-16T00:06:43;19.60;93.60
34153;DHT22;20426;48.372;10.888;2022-08-16T00:07:14;19.70;93.70
34153;DHT22;20426;48.372;10.888;2022-08-16T00:07:45;19.60;93.60
34153;DHT22;20426;48.372;10.888;2022-08-16T00:08:18;19.60;93.70
34153;DHT22;20426;48.372;10.888;2022-08-16T00:08:51;19.60;93.80
34153;DHT22;20426;48.372;10.888;2022-08-16T00:09:22;19.50;93.80
34153;DHT22;20426;48.372;10.888;2022-08-16T00:09:53;19.60;93.90
34153;DHT22;20426;48.372;10.888;2022-08-16T00:10:27;19.60;93.90
34153;DHT22;20426;48.372;10.888;2022-08-16T00:10:58;19.60;93.90
34153;DHT22;20426;48.372;10.888;2022-08-16T00:11:29;19.60;93.90
34153;DHT22;20426;48.372;10.888;2022-08-16T00:12:01;19.60;93.90
34153;DHT22;20426;48.372;10.888;2022-08-16T00:12:34;19.60;93.90
34153;DHT22;20426;48.372;10.888;2022-08-16T00:13:07;19.60;93.80
34153;DHT22;20426;48.372;10.888;2022-08-16T00:13:39;19.60;93.80
34153;DHT22;20426;48.372;10.888;2022-08-16T00:14:13;19.60;93.80
34153;DHT22;20426;48.372;10.888;2022-08-16T00:14:44;19.70;93.90
34153;DHT22;20426;48.372;10.888;2022-08-16T00:15:22;19.70;93.80
34153;DHT22;20426;48.372;10.888;2022-08-16T00:15:53;19.60;93.80
34153;DHT22;20426;48.372;10.888;2022-08-16T00:16:27;19.60;93.80
34153;DHT22;20426;48.372;10.888;2022-08-16T00:16:58;19.70;93.90
34153;DHT22;20426;48.372;10.888;2022-08-16T00:17:30;19.60;93.80
34153;DHT22;20426;48.372;10.888;2022-08-16T00:18:01;19.60;93.90
34153;DHT22;20426;48.372;10.888;2022-08-16T00:18:32;19.60;93.80
34153;DHT22;20426;48.372;10.888;2022-08-16T00:19:03;19.70;93.80
34153;DHT22;20426;48.372;10.888;2022-08-16T00:19:34;19.60;93.80
34153;DHT22;20426;48.372;10.888;2022-08-16T00:20:06;19.60;93.80
34153;DHT22;20426;48.372;10.888;2022-08-16T00:20:42;19.60;93.80
34153;DHT22;20426;48.372;10.888;2022-08-16T00:21:14;19.60;93.90
34153;DHT22;20426;48.372;10.888;2022-08-16T00:21:45;19.60;93.90
34153;DHT22;20426;48.372;10.888;2022-08-16T00:22:16;19.50;94.00
34153;DHT22;20426;48.372;10.888;2022-08-16T00:22:47;19.50;94.00
34153;DHT22;20426;48.372;10.888;2022-08-16T00:23:18;19.50;94.00
34153;DHT22;20426;48.372;10.888;2022-08-16T00:23:49;19.50;94.00
34153;DHT22;20426;48.372;10.888;2022-08-16T00:24:22;19.50;94.10
34153;DHT22;20426;48.372;10.888;2022-08-16T00:24:53;19.50;94.20
34153;DHT22;20426;48.372;10.888;2022-08-16T00:25:24;19.50;94.20
34153;DHT22;20426;48.372;10.888;2022-08-16T00:25:55;19.50;94.10
34153;DHT22;20426;48.372;10.888;2022-08-16T00:26:26;19.50;94.10
34153;DHT22;20426;48.372;10.888;2022-08-16T00:26:57;19.50;94.10
34153;DHT22;20426;48.372;10.888;2022-08-16T00:27:28;19.50;94.10
34153;DHT22;20426;48.372;10.888;2022-08-16T00:27:59;19.50;94.10
34153;DHT22;20426;48.372;10.888;2022-08-16T00:28:30;19.50;94.10
34153;DHT22;20426;48.372;10.888;2022-08-16T00:29:00;19.50;94.10
34153;DHT22;20426;48.372;10.888;2022-08-16T00:29:31;19.60;94.10
34153;DHT22;20426;48.372;10.888;2022-08-16T00:30:05;19.60;94.10
34153;DHT22;20426;48.372;10.888;2022-08-16T00:30:37;19.60;94.00
34153;DHT22;20426;48.372;10.888;2022-08-16T00:31:08;19.60;94.00
34153;DHT22;20426;48.372;10.888;2022-08-16T00:31:39;19.50;94.00
34153;DHT22;20426;48.372;10.888;2022-08-16T00:32:10;19.50;94.10
34153;DHT22;20426;48.372;10.888;2022-08-16T00:32:43;19.50;94.10
34153;DHT22;20426;48.372;10.888;2022-08-16T00:33:15;19.50;94.10
34153;DHT22;20426;48.372;10.888;2022-08-16T00:33:46;19.50;94.10
34153;DHT22;20426;48.372;10.888;2022-08-16T00:34:18;19.50;94.20
34153;DHT22;20426;48.372;10.888;2022-08-16T00:34:49;19.50;94.20
34153;DHT22;20426;48.372;10.888;2022-08-16T00:35:24;19.50;94.10
34153;DHT22;20426;48.372;10.888;2022-08-16T00:35:55;19.40;94.10
34153;DHT22;20426;48.372;10.888;2022-08-16T00:36:27;19.40;94.20
34153;DHT22;20426;48.372;10.888;2022-08-16T00:36:57;19.40;94.20
34153;DHT22;20426;48.372;10.888;2022-08-16T00:37:28;19.40;94.20
34153;DHT22;20426;48.372;10.888;2022-08-16T00:37:59;19.40;94.30
34153;DHT22;20426;48.372;10.888;2022-08-16T00:38:32;19.40;94.30
34153;DHT22;20426;48.372;10.888;2022-08-16T00:39:03;19.40;94.20
34153;DHT22;20426;48.372;10.888;2022-08-16T00:39:34;19.40;94.20
34153;DHT22;20426;48.372;10.888;2022-08-16T00:40:05;19.40;94.20
34153;DHT22;20426;48.372;10.888;2022-08-16T00:40:47;19.40;94.20
34153;DHT22;20426;48.372;10.888;2022-08-16T00:41:18;19.40;94.30
34153;DHT22;20426;48.372;10.888;2022-08-16T00:41:49;19.40;94.30
34153;DHT22;20426;48.372;10.888;2022-08-16T00:42:20;19.40;94.30
34153;DHT22;20426;48.372;10.888;2022-08-16T00:42:51;19.40;94.40
34153;DHT22;20426;48.372;10.888;2022-08-16T00:43:26;19.40;94.40
34153;DHT22;20426;48.372;10.888;2022-08-16T00:44:00;19.40;94.40
34153;DHT22;20426;48.372;10.888;2022-08-16T00:44:53;19.40;94.40
34153;DHT22;20426;48.372;10.888;2022-08-16T00:45:43;19.40;94.50
34153;DHT22;20426;48.372;10.888;2022-08-16T00:46:25;19.40;94.50
34153;DHT22;20426;48.372;10.888;2022-08-16T00:47:02;19.40;94.50
34153;DHT22;20426;48.372;10.888;2022-08-16T00:47:41;19.40;94.50
34153;DHT22;20426;48.372;10.888;2022-08-16T00:48:13;19.40;94.50
34153;DHT22;20426;48.372;10.888;2022-08-16T00:48:45;19.40;94.50
34153;DHT22;20426;48.372;10.888;2022-08-16T00:49:16;19.40;94.60
34153;DHT22;20426;48.372;10.888;2022-08-16T00:49:47;19.40;94.50
34153;DHT22;20426;48.372;10.888;2022-08-16T00:50:25;19.40;94.50
34153;DHT22;20426;48.372;10.888;2022-08-16T00:50:56;19.40;94.50
34153;DHT22;20426;48.372;10.888;2022-08-16T00:51:27;19.40;94.60
34153;DHT22;20426;48.372;10.888;2022-08-16T00:51:58;19.30;94.60
34153;DHT22;20426;48.372;10.888;2022-08-16T00:52:29;19.40;94.70
34153;DHT22;20426;48.372;10.888;2022-08-16T00:52:59;19.40;94.70
34153;DHT22;20426;48.372;10.888;2022-08-16T00:53:30;19.30;94.70
34153;DHT22;20426;48.372;10.888;2022-08-16T00:54:01;19.30;94.70
34153;DHT22;20426;48.372;10.888;2022-08-16T00:54:33;19.30;94.70
34153;DHT22;20426;48.372;10.888;2022-08-16T00:55:05;19.30;94.70
34153;DHT22;20426;48.372;10.888;2022-08-16T00:55:44;19.20;94.70
34153;DHT22;20426;48.372;10.888;2022-08-16T00:56:23;19.20;94.70
34153;DHT22;20426;48.372;10.888;2022-08-16T00:56:55;19.20;94.80
34153;DHT22;20426;48.372;10.888;2022-08-16T00:57:27;19.20;94.80
34153;DHT22;20426;48.372;10.888;2022-08-16T00:57:59;19.20;94.80
34153;DHT22;20426;48.372;10.888;2022-08-16T00:58:32;19.20;94.90
34153;DHT22;20426;48.372;10.888;2022-08-16T00:59:05;19.20;95.00
34153;DHT22;20426;48.372;10.888;2022-08-16T00:59:37;19.20;95.00
34153;DHT22;20426;48.372;10.888;2022-08-16T01:00:09;19.10;95.00
34153;DHT22;20426;48.372;10.888;2022-08-16T01:00:40;19.20;95.10
34153;DHT22;20426;48.372;10.888;2022-08-16T01:01:12;19.10;95.10
34153;DHT22;20426;48.372;10.888;2022-08-16T01:01:44;19.10;95.10
34153;DHT22;20426;48.372;10.888;2022-08-16T01:02:15;19.10;95.10
34153;DHT22;20426;48.372;10.888;2022-08-16T01:02:46;19.10;95.20
34153;DHT22;20426;48.372;10.888;2022-08-16T01:03:19;19.10;95.20
34153;DHT22;20426;48.372;10.888;2022-08-16T01:03:51;19.10;95.30
34153;DHT22;20426;48.372;10.888;2022-08-16T01:04:24;19.10;95.30
34153;DHT22;20426;48.372;10.888;2022-08-16T01:04:56;19.10;95.20
34153;DHT22;20426;48.372;10.888;2022-08-16T01:05:28;19.10;95.20
34153;DHT22;20426;48.372;10.888;2022-08-16T01:05:59;19.10;95.20
34153;DHT22;20426;48.372;10.888;2022-08-16T01:06:32;19.10;95.10
34153;DHT22;20426;48.372;10.888;2022-08-16T01:07:07;19.10;95.20
34153;DHT22;20426;48.372;10.888;2022-08-16T01:07:41;19.20;95.10
34153;DHT22;20426;48.372;10.888;2022-08-16T01:08:16;19.20;94.90
34153;DHT22;20426;48.372;10.888;2022-08-16T01:08:51;19.20;95.00
34153;DHT22;20426;48.372;10.888;2022-08-16T01:09:23;19.20;94.90
34153;DHT22;20426;48.372;10.888;2022-08-16T01:09:54;19.20;95.00
34153;DHT22;20426;48.372;10.888;2022-08-16T01:10:27;19.20;94.90
34153;DHT22;20426;48.372;10.888;2022-08-16T01:11:00;19.10;94.80
34153;DHT22;20426;48.372;10.888;2022-08-16T01:11:33;19.20;94.90
34153;DHT22;20426;48.372;10.888;2022-08-16T01:12:07;19.10;94.80
34153;DHT22;20426;48.372;10.888;2022-08-16T01:12:40;19.10;94.90
34153;DHT22;20426;48.372;10.888;2022-08-16T01:13:14;19.10;94.90
34153;DHT22;20426;48.372;10.888;2022-08-16T01:13:48;19.10;95.00
34153;DHT22;20426;48.372;10.888;2022-08-16T01:14:26;19.10;95.10
34153;DHT22;20426;48.372;10.888;2022-08-16T01:14:59;19.00;95.00
34153;DHT22;20426;48.372;10.888;2022-08-16T01:15:30;19.10;95.10
34153;DHT22;20426;48.372;10.888;2022-08-16T01:16:08;19.10;95.10
34153;DHT22;20426;48.372;10.888;2022-08-16T01:16:42;19.10;95.00
34153;DHT22;20426;48.372;10.888;2022-08-16T01:17:16;19.00;95.00
34153;DHT22;20426;48.372;10.888;2022-08-16T01:17:49;19.00;95.00
34153;DHT22;20426;48.372;10.888;2022-08-16T01:18:24;19.00;95.00
34153;DHT22;20426;48.372;10.888;2022-08-16T01:19:59;19.00;95.10
34153;DHT22;20426;48.372;10.888;2022-08-16T01:20:34;19.00;95.10
34153;DHT22;20426;48.372;10.888;2022-08-16T01:21:31;18.90;95.20
34153;DHT22;20426;48.372;10.888;2022-08-16T01:22:54;19.00;95.20
34153;DHT22;20426;48.372;10.888;2022-08-16T01:24:47;19.00;95.10
34153;DHT22;20426;48.372;10.888;2022-08-16T01:25:28;19.00;95.20
34153;DHT22;20426;48.372;10.888;2022-08-16T01:26:02;19.00;95.10
34153;DHT22;20426;48.372;10.888;2022-08-16T01:26:36;19.00;95.10
34153;DHT22;20426;48.372;10.888;2022-08-16T01:27:32;19.00;95.10
34153;DHT22;20426;48.372;10.888;2022-08-16T01:28:08;19.00;95.10
34153;DHT22;20426;48.372;10.888;2022-08-16T01:28:42;18.90;95.20
34153;DHT22;20426;48.372;10.888;2022-08-16T01:29:18;18.90;95.20
34153;DHT22;20426;48.372;10.888;2022-08-16T01:30:25;18.90;95.30
34153;DHT22;20426;48.372;10.888;2022-08-16T01:30:58;18.90;95.30
34153;DHT22;20426;48.372;10.888;2022-08-16T01:31:29;18.90;95.30
34153;DHT22;20426;48.372;10.888;2022-08-16T01:32:00;18.90;95.30
34153;DHT22;20426;48.372;10.888;2022-08-16T01:32:33;18.90;95.30
34153;DHT22;20426;48.372;10.888;2022-08-16T01:33:14;18.90;95.40
34153;DHT22;20426;48.372;10.888;2022-08-16T01:33:44;18.80;95.20
34153;DHT22;20426;48.372;10.888;2022-08-16T01:34:16;18.80;95.30
34153;DHT22;20426;48.372;10.888;2022-08-16T01:34:48;18.80;95.30
34153;DHT22;20426;48.372;10.888;2022-08-16T01:35:43;18.80;95.30
34153;DHT22;20426;48.372;10.888;2022-08-16T01:36:15;18.80;95.40
34153;DHT22;20426;48.372;10.888;2022-08-16T01:36:46;18.80;95.40
34153;DHT22;20426;48.372;10.888;2022-08-16T01:37:17;18.80;95.40
34153;DHT22;20426;48.372;10.888;2022-08-16T01:37:51;18.80;95.70
34153;DHT22;20426;48.372;10.888;2022-08-16T01:38:31;18.80;95.40
34153;DHT22;20426;48.372;10.888;2022-08-16T01:39:12;18.80;95.50
34153;DHT22;20426;48.372;10.888;2022-08-16T01:39:43;18.80;95.50
34153;DHT22;20426;48.372;10.888;2022-08-16T01:40:17;18.80;95.50
34153;DHT22;20426;48.372;10.888;2022-08-16T01:40:50;18.80;95.60
34153;DHT22;20426;48.372;10.888;2022-08-16T01:41:25;18.80;95.50
34153;DHT22;20426;48.372;10.888;2022-08-16T01:41:56;18.80;95.50
34153;DHT22;20426;48.372;10.888;2022-08-16T01:42:27;18.80;95.50
34153;DHT22;20426;48.372;10.888;2022-08-16T01:42:59;18.90;95.50
34153;DHT22;20426;48.372;10.888;2022-08-16T01:43:30;18.80;95.50
34153;DHT22;20426;48.372;10.888;2022-08-16T01:44:01;18.80;95.40
34153;DHT22;20426;48.372;10.888;2022-08-16T01:44:34;18.80;95.40
34153;DHT22;20426;48.372;10.888;2022-08-16T01:45:06;18.80;95.50
34153;DHT22;20426;48.372;10.888;2022-08-16T01:45:37;18.80;95.40
34153;DHT22;20426;48.372;10.888;2022-08-16T01:46:30;18.80;95.50
34153;DHT22;20426;48.372;10.888;2022-08-16T01:47:02;18.80;95.50
34153;DHT22;20426;48.372;10.888;2022-08-16T01:47:33;18.80;95.50
34153;DHT22;20426;48.372;10.888;2022-08-16T01:48:06;18.80;95.50
34153;DHT22;20426;48.372;10.888;2022-08-16T01:48:37;18.80;95.50
34153;DHT22;20426;48.372;10.888;2022-08-16T01:49:10;18.80;95.50
34153;DHT22;20426;48.372;10.888;2022-08-16T01:49:42;18.80;95.50
34153;DHT22;20426;48.372;10.888;2022-08-16T01:50:14;18.80;95.50
34153;DHT22;20426;48.372;10.888;2022-08-16T01:50:45;18.80;95.50
34153;DHT22;20426;48.372;10.888;2022-08-16T01:51:18;18.80;95.50
34153;DHT22;20426;48.372;10.888;2022-08-16T01:51:57;18.70;95.50
34153;DHT22;20426;48.372;10.888;2022-08-16T01:52:29;18.70;95.40
34153;DHT22;20426;48.372;10.888;2022-08-16T01:53:00;18.70;95.50
34153;DHT22;20426;48.372;10.888;2022-08-16T01:53:31;18.70;95.50
34153;DHT22;20426;48.372;10.888;2022-08-16T01:54:02;18.70;95.60
34153;DHT22;20426;48.372;10.888;2022-08-16T01:54:33;18.60;95.60
34153;DHT22;20426;48.372;10.888;2022-08-16T01:55:05;18.60;95.70
34153;DHT22;20426;48.372;10.888;2022-08-16T01:55:37;18.60;95.80
34153;DHT22;20426;48.372;10.888;2022-08-16T01:56:10;18.60;95.80
34153;DHT22;20426;48.372;10.888;2022-08-16T01:56:42;18.60;95.80
34153;DHT22;20426;48.372;10.888;2022-08-16T01:57:13;18.60;95.70
34153;DHT22;20426;48.372;10.888;2022-08-16T01:57:43;18.60;95.70
34153;DHT22;20426;48.372;10.888;2022-08-16T01:58:15;18.60;95.70
34153;DHT22;20426;48.372;10.888;2022-08-16T01:58:47;18.60;95.70
34153;DHT22;20426;48.372;10.888;2022-08-16T01:59:18;18.60;95.70
34153;DHT22;20426;48.372;10.888;2022-08-16T01:59:48;18.60;95.70
34153;DHT22;20426;48.372;10.888;2022-08-16T02:00:20;18.60;95.80
34153;DHT22;20426;48.372;10.888;2022-08-16T02:00:51;18.60;95.70
34153;DHT22;20426;48.372;10.888;2022-08-16T02:01:23;18.60;95.70
34153;DHT22;20426;48.372;10.888;2022-08-16T02:01:54;18.60;95.70
34153;DHT22;20426;48.372;10.888;2022-08-16T02:02:26;18.60;95.70
34153;DHT22;20426;48.372;10.888;2022-08-16T02:02:57;18.60;95.70
34153;DHT22;20426;48.372;10.888;2022-08-16T02:03:28;18.60;95.70
34153;DHT22;20426;48.372;10.888;2022-08-16T02:04:00;18.60;95.70
34153;DHT22;20426;48.372;10.888;2022-08-16T02:04:32;18.60;95.80
34153;DHT22;20426;48.372;10.888;2022-08-16T02:05:04;18.60;95.80
34153;DHT22;20426;48.372;10.888;2022-08-16T02:05:36;18.60;95.80
34153;DHT22;20426;48.372;10.888;2022-08-16T02:06:07;18.60;95.80
34153;DHT22;20426;48.372;10.888;2022-08-16T02:06:39;18.60;95.90
34153;DHT22;20426;48.372;10.888;2022-08-16T02:07:10;18.50;96.00
34153;DHT22;20426;48.372;10.888;2022-08-16T02:07:43;18.50;96.00
34153;DHT22;20426;48.372;10.888;2022-08-16T02:08:15;18.50;96.00
34153;DHT22;20426;48.372;10.888;2022-08-16T02:08:46;18.50;96.00
34153;DHT22;20426;48.372;10.888;2022-08-16T02:09:19;18.50;96.00
34153;DHT22;20426;48.372;10.888;2022-08-16T02:09:51;18.50;96.00
34153;DHT22;20426;48.372;10.888;2022-08-16T02:10:24;18.50;96.00
34153;DHT22;20426;48.372;10.888;2022-08-16T02:10:55;18.50;96.00
34153;DHT22;20426;48.372;10.888;2022-08-16T02:11:27;18.50;96.00
34153;DHT22;20426;48.372;10.888;2022-08-16T02:11:58;18.50;96.00
34153;DHT22;20426;48.372;10.888;2022-08-16T02:12:30;18.50;96.00
34153;DHT22;20426;48.372;10.888;2022-08-16T02:13:03;18.50;96.00
34153;DHT22;20426;48.372;10.888;2022-08-16T02:13:35;18.50;96.10
34153;DHT22;20426;48.372;10.888;2022-08-16T02:14:06;18.50;96.00
34153;DHT22;20426;48.372;10.888;2022-08-16T02:14:37;18.50;96.00
34153;DHT22;20426;48.372;10.888;2022-08-16T02:15:09;18.50;96.00
34153;DHT22;20426;48.372;10.888;2022-08-16T02:15:40;18.40;96.00
34153;DHT22;20426;48.372;10.888;2022-08-16T02:16:12;18.40;96.00
34153;DHT22;20426;48.372;10.888;2022-08-16T02:16:42;18.40;96.00
34153;DHT22;20426;48.372;10.888;2022-08-16T02:17:14;18.40;96.10
34153;DHT22;20426;48.372;10.888;2022-08-16T02:17:47;18.40;96.10
34153;DHT22;20426;48.372;10.888;2022-08-16T02:18:19;18.40;96.20
34153;DHT22;20426;48.372;10.888;2022-08-16T02:18:50;18.40;96.20
34153;DHT22;20426;48.372;10.888;2022-08-16T02:19:24;18.40;96.30
34153;DHT22;20426;48.372;10.888;2022-08-16T02:19:56;18.40;96.30
34153;DHT22;20426;48.372;10.888;2022-08-16T02:20:33;18.40;96.30
34153;DHT22;20426;48.372;10.888;2022-08-16T02:21:07;18.40;96.40
34153;DHT22;20426;48.372;10.888;2022-08-16T02:21:40;18.40;96.40
34153;DHT22;20426;48.372;10.888;2022-08-16T02:22:12;18.40;96.30
34153;DHT22;20426;48.372;10.888;2022-08-16T02:22:44;18.40;96.30
34153;DHT22;20426;48.372;10.888;2022-08-16T02:23:16;18.40;96.30
34153;DHT22;20426;48.372;10.888;2022-08-16T02:23:48;18.40;96.30
34153;DHT22;20426;48.372;10.888;2022-08-16T02:24:18;18.40;96.30
34153;DHT22;20426;48.372;10.888;2022-08-16T02:24:51;18.40;96.30
34153;DHT22;20426;48.372;10.888;2022-08-16T02:25:22;18.40;96.30
34153;DHT22;20426;48.372;10.888;2022-08-16T02:25:53;18.30;96.20
34153;DHT22;20426;48.372;10.888;2022-08-16T02:26:25;18.30;96.30
34153;DHT22;20426;48.372;10.888;2022-08-16T02:26:56;18.40;96.40
34153;DHT22;20426;48.372;10.888;2022-08-16T02:27:28;18.40;96.40
34153;DHT22;20426;48.372;10.888;2022-08-16T02:27:59;18.40;96.40
34153;DHT22;20426;48.372;10.888;2022-08-16T02:28:30;18.40;96.40
34153;DHT22;20426;48.372;10.888;2022-08-16T02:29:02;18.40;96.40
34153;DHT22;20426;48.372;10.888;2022-08-16T02:29:33;18.40;96.40
34153;DHT22;20426;48.372;10.888;2022-08-16T02:30:05;18.40;96.40
34153;DHT22;20426;48.372;10.888;2022-08-16T02:30:37;18.50;96.40
34153;DHT22;20426;48.372;10.888;2022-08-16T02:31:10;18.50;96.30
34153;DHT22;20426;48.372;10.888;2022-08-16T02:31:41;18.50;96.30
34153;DHT22;20426;48.372;10.888;2022-08-16T02:32:14;18.40;96.20
34153;DHT22;20426;48.372;10.888;2022-08-16T02:32:45;18.40;96.20
34153;DHT22;20426;48.372;10.888;2022-08-16T02:33:17;18.40;96.60
34153;DHT22;20426;48.372;10.888;2022-08-16T02:33:48;18.40;96.30
34153;DHT22;20426;48.372;10.888;2022-08-16T02:34:20;18.40;96.50
34153;DHT22;20426;48.372;10.888;2022-08-16T02:34:51;18.40;96.40
34153;DHT22;20426;48.372;10.888;2022-08-16T02:35:23;18.40;96.50
34153;DHT22;20426;48.372;10.888;2022-08-16T02:35:54;18.30;96.40
34153;DHT22;20426;48.372;10.888;2022-08-16T02:36:25;18.30;96.50
34153;DHT22;20426;48.372;10.888;2022-08-16T02:36:55;18.30;96.40
34153;DHT22;20426;48.372;10.888;2022-08-16T02:37:26;18.30;96.40
34153;DHT22;20426;48.372;10.888;2022-08-16T02:37:57;18.30;96.40
34153;DHT22;20426;48.372;10.888;2022-08-16T02:38:28;18.30;96.50
34153;DHT22;20426;48.372;10.888;2022-08-16T02:39:00;18.30;96.50
34153;DHT22;20426;48.372;10.888;2022-08-16T02:39:31;18.30;96.30
34153;DHT22;20426;48.372;10.888;2022-08-16T02:40:03;18.30;96.30
34153;DHT22;20426;48.372;10.888;2022-08-16T02:40:35;18.30;96.40
34153;DHT22;20426;48.372;10.888;2022-08-16T02:41:07;18.30;96.40
34153;DHT22;20426;48.372;10.888;2022-08-16T02:41:40;18.30;96.50
34153;DHT22;20426;48.372;10.888;2022-08-16T02:42:11;18.30;96.60
34153;DHT22;20426;48.372;10.888;2022-08-16T02:42:44;18.30;96.60
34153;DHT22;20426;48.372;10.888;2022-08-16T02:43:15;18.30;96.70
34153;DHT22;20426;48.372;10.888;2022-08-16T02:43:46;18.30;96.70
34153;DHT22;20426;48.372;10.888;2022-08-16T02:44:16;18.30;96.70
34153;DHT22;20426;48.372;10.888;2022-08-16T02:44:47;18.30;96.60
34153;DHT22;20426;48.372;10.888;2022-08-16T02:45:21;18.30;96.60
34153;DHT22;20426;48.372;10.888;2022-08-16T02:45:52;18.30;96.60
34153;DHT22;20426;48.372;10.888;2022-08-16T02:46:23;18.30;96.50
34153;DHT22;20426;48.372;10.888;2022-08-16T02:46:55;18.30;96.50
34153;DHT22;20426;48.372;10.888;2022-08-16T02:47:26;18.30;96.50
34153;DHT22;20426;48.372;10.888;2022-08-16T02:47:57;18.30;96.50
34153;DHT22;20426;48.372;10.888;2022-08-16T02:48:28;18.30;96.50
34153;DHT22;20426;48.372;10.888;2022-08-16T02:49:00;18.30;96.60
34153;DHT22;20426;48.372;10.888;2022-08-16T02:49:31;18.30;96.50
34153;DHT22;20426;48.372;10.888;2022-08-16T02:50:03;18.30;96.60
34153;DHT22;20426;48.372;10.888;2022-08-16T02:50:34;18.30;96.50
34153;DHT22;20426;48.372;10.888;2022-08-16T02:51:06;18.30;96.50
34153;DHT22;20426;48.372;10.888;2022-08-16T02:51:39;18.30;96.60
34153;DHT22;20426;48.372;10.888;2022-08-16T02:52:11;18.30;96.60
34153;DHT22;20426;48.372;10.888;2022-08-16T02:52:42;18.30;96.70
34153;DHT22;20426;48.372;10.888;2022-08-16T02:53:13;18.30;96.70
34153;DHT22;20426;48.372;10.888;2022-08-16T02:53:45;18.20;96.60
34153;DHT22;20426;48.372;10.888;2022-08-16T02:54:17;18.20;96.70
34153;DHT22;20426;48.372;10.888;2022-08-16T02:54:48;18.20;96.80
34153;DHT22;20426;48.372;10.888;2022-08-16T02:55:20;18.20;96.80
34153;DHT22;20426;48.372;10.888;2022-08-16T02:55:52;18.20;96.80
34153;DHT22;20426;48.372;10.888;2022-08-16T02:56:22;18.20;96.80
34153;DHT22;20426;48.372;10.888;2022-08-16T02:56:53;18.20;96.80
34153;DHT22;20426;48.372;10.888;2022-08-16T02:57:24;18.20;96.70
34153;DHT22;20426;48.372;10.888;2022-08-16T02:57:55;18.30;96.80
34153;DHT22;20426;48.372;10.888;2022-08-16T02:58:26;18.20;96.70
34153;DHT22;20426;48.372;10.888;2022-08-16T02:58:57;18.20;96.70
34153;DHT22;20426;48.372;10.888;2022-08-16T02:59:28;18.30;96.80
34153;DHT22;20426;48.372;10.888;2022-08-16T02:59:59;18.30;96.70
34153;DHT22;20426;48.372;10.888;2022-08-16T03:00:30;18.30;96.70
34153;DHT22;20426;48.372;10.888;2022-08-16T03:01:01;18.20;96.60
34153;DHT22;20426;48.372;10.888;2022-08-16T03:01:33;18.20;96.60
34153;DHT22;20426;48.372;10.888;2022-08-16T03:02:04;18.30;96.70
34153;DHT22;20426;48.372;10.888;2022-08-16T03:02:35;18.20;96.70
34153;DHT22;20426;48.372;10.888;2022-08-16T03:03:47;18.30;96.70
34153;DHT22;20426;48.372;10.888;2022-08-16T03:04:18;18.20;96.60
34153;DHT22;20426;48.372;10.888;2022-08-16T03:04:48;18.30;96.60
34153;DHT22;20426;48.372;10.888;2022-08-16T03:05:19;18.30;96.60
34153;DHT22;20426;48.372;10.888;2022-08-16T03:05:50;18.20;96.50
34153;DHT22;20426;48.372;10.888;2022-08-16T03:06:21;18.20;96.60
34153;DHT22;20426;48.372;10.888;2022-08-16T03:06:53;18.20;96.50
34153;DHT22;20426;48.372;10.888;2022-08-16T03:07:24;18.20;96.60
34153;DHT22;20426;48.372;10.888;2022-08-16T03:07:55;18.20;96.70
34153;DHT22;20426;48.372;10.888;2022-08-16T03:08:26;18.20;96.70
34153;DHT22;20426;48.372;10.888;2022-08-16T03:08:57;18.20;96.80
34153;DHT22;20426;48.372;10.888;2022-08-16T03:09:27;18.10;96.80
34153;DHT22;20426;48.372;10.888;2022-08-16T03:09:58;18.10;96.80
34153;DHT22;20426;48.372;10.888;2022-08-16T03:10:29;18.10;96.80
34153;DHT22;20426;48.372;10.888;2022-08-16T03:11:00;18.10;96.90
34153;DHT22;20426;48.372;10.888;2022-08-16T03:11:31;18.10;97.00
34153;DHT22;20426;48.372;10.888;2022-08-16T03:12:03;18.10;97.00
34153;DHT22;20426;48.372;10.888;2022-08-16T03:12:34;18.10;97.00
34153;DHT22;20426;48.372;10.888;2022-08-16T03:13:05;18.10;96.90
34153;DHT22;20426;48.372;10.888;2022-08-16T03:13:36;18.10;96.90
34153;DHT22;20426;48.372;10.888;2022-08-16T03:14:07;18.10;96.90
34153;DHT22;20426;48.372;10.888;2022-08-16T03:14:38;18.10;97.00
34153;DHT22;20426;48.372;10.888;2022-08-16T03:15:10;18.10;97.00
34153;DHT22;20426;48.372;10.888;2022-08-16T03:15:42;18.10;97.00
34153;DHT22;20426;48.372;10.888;2022-08-16T03:16:13;18.10;96.90
34153;DHT22;20426;48.372;10.888;2022-08-16T03:16:43;18.10;97.00
34153;DHT22;20426;48.372;10.888;2022-08-16T03:17:15;18.00;97.00
34153;DHT22;20426;48.372;10.888;2022-08-16T03:17:46;18.00;97.00
34153;DHT22;20426;48.372;10.888;2022-08-16T03:18:17;18.00;97.00
34153;DHT22;20426;48.372;10.888;2022-08-16T03:18:48;18.00;97.00
34153;DHT22;20426;48.372;10.888;2022-08-16T03:19:19;18.00;97.10
34153;DHT22;20426;48.372;10.888;2022-08-16T03:19:49;18.00;97.10
34153;DHT22;20426;48.372;10.888;2022-08-16T03:20:23;17.90;97.10
34153;DHT22;20426;48.372;10.888;2022-08-16T03:20:53;17.90;97.20
34153;DHT22;20426;48.372;10.888;2022-08-16T03:21:25;17.90;97.20
34153;DHT22;20426;48.372;10.888;2022-08-16T03:21:58;17.90;97.30
34153;DHT22;20426;48.372;10.888;2022-08-16T03:22:28;17.90;97.20
34153;DHT22;20426;48.372;10.888;2022-08-16T03:22:59;17.90;97.20
34153;DHT22;20426;48.372;10.888;2022-08-16T03:23:30;17.90;97.20
34153;DHT22;20426;48.372;10.888;2022-08-16T03:24:01;17.90;97.20
34153;DHT22;20426;48.372;10.888;2022-08-16T03:24:33;17.90;97.20
34153;DHT22;20426;48.372;10.888;2022-08-16T03:25:06;17.90;97.30
34153;DHT22;20426;48.372;10.888;2022-08-16T03:25:37;17.90;97.20
34153;DHT22;20426;48.372;10.888;2022-08-16T03:26:08;17.90;97.10